Terminal Aerodrome Forecast
Issued by NWS Sterling, VA

Current Version | Previous Version | Graphics & Text | Print | Product List | Glossary On
Versions: 1 2 3 4 5 6 7 8 9 10 11 12 13 14 15 16 17 18 19 20 21 22 23
998
FTUS41 KLWX 041131
TAFMRB
TAF
KMRB 041131Z 0412/0512 VRB03KT 1/2SM FG VCSH OVC005
     FM041300 VRB03KT 1SM -SHRA OVC008
     FM041500 VRB03KT 3SM -SHRA OVC008
     FM041900 09004KT 5SM -SHRA BKN015
     FM042100 09005KT 3SM -SHRA OVC015
     FM050000 08004KT P6SM OVC008
     FM050600 VRB03KT 2SM -SHRA OVC008=

USA.gov is the U.S. government's official web portal to all federal, state and local government web resources and services.